createdAt,value
2023-02-14T00:01:20.632Z,11.35
2023-02-14T00:04:34.150Z,11.43
2023-02-14T00:07:39.789Z,11.43
2023-02-14T00:10:45.255Z,12.18
2023-02-14T00:14:03.711Z,11.38
2023-02-14T00:17:09.350Z,11.02
2023-02-14T00:20:13.720Z,11.80
2023-02-14T00:23:17.109Z,12.02
2023-02-14T00:26:22.067Z,10.18
2023-02-14T00:29:26.481Z,10.30
2023-02-14T00:32:32.115Z,11.15
2023-02-14T00:35:40.772Z,10.98
2023-02-14T00:38:44.131Z,11.55
2023-02-14T00:41:49.787Z,11.20
2023-02-14T00:44:53.568Z,11.93
2023-02-14T00:48:00.033Z,11.35
2023-02-14T00:51:04.231Z,11.38
2023-02-14T00:54:08.687Z,10.27
2023-02-14T00:57:14.158Z,11.57
2023-02-14T01:00:18.789Z,10.68
2023-02-14T01:03:23.263Z,10.98
2023-02-14T01:06:31.754Z,11.38
2023-02-14T01:09:35.283Z,11.43
2023-02-14T01:12:40.825Z,10.73
2023-02-14T01:15:45.574Z,10.80
2023-02-14T01:18:49.257Z,11.40
2023-02-14T01:21:53.633Z,11.80
2023-02-14T01:25:03.797Z,10.05
2023-02-14T01:28:09.087Z,10.77
2023-02-14T01:31:15.454Z,11.30
2023-02-14T01:34:18.902Z,10.63
2023-02-14T01:37:24.301Z,11.43
2023-02-14T01:40:29.340Z,11.57
2023-02-14T01:43:34.774Z,11.05
2023-02-14T01:46:38.988Z,9.73
2023-02-14T01:49:45.059Z,13.07
2023-02-14T01:52:49.369Z,11.55
2023-02-14T01:55:54.879Z,11.85
2023-02-14T01:59:04.364Z,10.98
2023-02-14T02:02:07.845Z,11.50
2023-02-14T02:05:12.928Z,11.32
2023-02-14T02:08:16.754Z,11.10
2023-02-14T02:11:20.954Z,11.75
2023-02-14T02:14:26.423Z,12.98
2023-02-14T02:17:35.053Z,12.48
2023-02-14T02:20:52.863Z,12.32
2023-02-14T02:24:02.979Z,11.35
2023-02-14T02:27:27.191Z,11.65
2023-02-14T02:30:41.294Z,11.82
2023-02-14T02:34:00.543Z,10.10
2023-02-14T02:37:10.933Z,11.02
2023-02-14T02:40:23.983Z,10.60
2023-02-14T02:43:33.134Z,10.07
2023-02-14T02:46:48.952Z,11.15
2023-02-14T02:50:14.242Z,12.20
2023-02-14T02:53:23.363Z,11.63
2023-02-14T02:56:47.354Z,10.93
2023-02-14T02:59:52.412Z,10.57
2023-02-14T03:03:24.320Z,10.90
2023-02-14T03:06:28.442Z,10.85
2023-02-14T03:09:51.036Z,11.38
2023-02-14T03:13:10.123Z,11.35
2023-02-14T03:16:27.555Z,10.68
2023-02-14T03:20:10.663Z,11.27
2023-02-14T03:23:17.641Z,10.68
2023-02-14T03:26:23.896Z,11.45
2023-02-14T03:29:33.101Z,10.18
2023-02-14T03:32:41.137Z,10.70
2023-02-14T03:35:49.311Z,11.05
2023-02-14T03:38:56.213Z,10.88
2023-02-14T03:42:06.090Z,11.95
2023-02-14T03:45:12.508Z,12.15
2023-02-14T03:48:18.364Z,11.90
2023-02-14T03:51:23.161Z,10.82
2023-02-14T03:54:27.758Z,11.10
2023-02-14T03:57:34.069Z,10.70
2023-02-14T04:00:42.075Z,10.73
2023-02-14T04:03:47.427Z,10.80
2023-02-14T04:06:52.519Z,11.88
2023-02-14T04:09:56.106Z,11.10
2023-02-14T04:13:00.384Z,12.15
2023-02-14T04:16:03.970Z,12.25
2023-02-14T04:19:24.369Z,11.85
2023-02-14T04:22:27.655Z,11.40
2023-02-14T04:25:31.363Z,10.35
2023-02-14T04:28:34.786Z,11.45
2023-02-14T04:31:38.175Z,11.75
2023-02-14T04:34:42.962Z,11.60
2023-02-14T04:37:46.530Z,11.45
2023-02-14T04:40:51.680Z,11.93
2023-02-14T04:43:55.925Z,12.30
2023-02-14T04:47:04.038Z,12.48
2023-02-14T04:50:10.470Z,11.07
2023-02-14T04:53:15.064Z,11.60
2023-02-14T04:56:20.555Z,12.13
2023-02-14T04:59:25.095Z,11.68
2023-02-14T05:02:29.639Z,10.73
2023-02-14T05:05:34.401Z,11.43
2023-02-14T05:08:37.869Z,11.63
2023-02-14T05:11:41.209Z,11.52
2023-02-14T05:14:44.722Z,10.93
2023-02-14T05:17:48.232Z,12.15
2023-02-14T05:21:01.476Z,13.30
2023-02-14T05:24:17.516Z,12.20
2023-02-14T05:27:20.874Z,12.30
2023-02-14T05:30:27.750Z,10.73
2023-02-14T05:33:31.267Z,12.10
2023-02-14T05:36:38.020Z,11.77
2023-02-14T05:39:41.366Z,11.10
2023-02-14T05:42:46.536Z,11.45
2023-02-14T05:45:49.933Z,10.93
2023-02-14T05:48:53.218Z,10.77
2023-02-14T05:51:57.916Z,11.30
2023-02-14T05:55:02.254Z,12.30
2023-02-14T05:58:05.775Z,10.68
2023-02-14T06:01:10.072Z,11.63
2023-02-14T06:04:13.445Z,12.10
2023-02-14T06:07:22.056Z,11.60
2023-02-14T06:10:26.652Z,10.70
2023-02-14T06:13:30.202Z,12.25
2023-02-14T06:16:35.755Z,11.55
2023-02-14T06:19:40.036Z,11.32
2023-02-14T06:22:44.733Z,11.15
2023-02-14T06:25:48.165Z,11.48
2023-02-14T06:28:54.607Z,12.65
2023-02-14T06:31:58.674Z,10.95
2023-02-14T06:35:03.478Z,11.93
2023-02-14T06:38:10.098Z,11.00
2023-02-14T06:41:17.041Z,11.25
2023-02-14T06:44:22.081Z,11.50
2023-02-14T06:47:25.721Z,11.35
2023-02-14T06:50:29.295Z,11.25
2023-02-14T06:53:36.028Z,12.00
2023-02-14T06:56:42.250Z,12.02
2023-02-14T06:59:46.517Z,11.02
2023-02-14T07:02:49.849Z,11.90
2023-02-14T07:05:53.319Z,11.27
2023-02-14T07:08:58.083Z,11.10
2023-02-14T07:12:01.509Z,12.00
2023-02-14T07:15:04.877Z,11.75
2023-02-14T07:18:12.099Z,10.57
2023-02-14T07:21:16.084Z,12.45
2023-02-14T07:24:24.464Z,13.32
2023-02-14T07:27:28.607Z,11.52
2023-02-14T07:30:32.891Z,12.32
2023-02-14T07:33:36.330Z,11.20
2023-02-14T07:40:34.723Z,11.10
2023-02-14T07:48:26.199Z,11.23
2023-02-14T07:51:37.921Z,11.40
2023-02-14T07:54:44.026Z,12.07
2023-02-14T07:58:18.730Z,12.18
2023-02-14T08:01:23.509Z,11.70
2023-02-14T08:04:26.780Z,11.75
2023-02-14T08:07:30.084Z,10.77
2023-02-14T08:10:41.459Z,11.02
2023-02-14T08:14:13.772Z,11.45
2023-02-14T08:17:18.464Z,11.25
2023-02-14T08:20:43.612Z,11.48
2023-02-14T08:23:47.649Z,11.13
2023-02-14T08:26:53.616Z,11.90
2023-02-14T08:44:44.004Z,10.05
2023-02-14T09:20:38.263Z,8.25
2023-02-14T09:23:43.701Z,7.82
2023-02-14T09:26:50.989Z,8.48
2023-02-14T09:29:54.434Z,8.82
2023-02-14T09:33:00.121Z,9.10
2023-02-14T09:36:22.656Z,8.50
2023-02-14T09:39:28.978Z,8.40
2023-02-14T09:42:41.423Z,7.30
2023-02-14T09:45:51.552Z,8.00
2023-02-14T09:48:55.842Z,8.07
2023-02-14T09:52:21.385Z,9.45
2023-02-14T09:55:30.970Z,8.80
2023-02-14T09:58:38.651Z,7.10
2023-02-14T10:02:10.859Z,8.77
2023-02-14T10:05:23.898Z,8.40
2023-02-14T10:08:33.087Z,8.25
2023-02-14T10:11:52.887Z,7.35
2023-02-14T10:18:52.516Z,8.10
2023-02-14T10:22:31.026Z,8.15
2023-02-14T10:25:39.588Z,8.30
2023-02-14T10:28:59.580Z,8.05
2023-02-14T10:32:45.240Z,8.20
2023-02-14T10:36:03.057Z,9.00
2023-02-14T10:39:27.522Z,7.68
2023-02-14T10:56:44.591Z,8.05
2023-02-14T10:59:52.388Z,8.32
2023-02-14T11:02:58.429Z,8.57
2023-02-14T11:06:02.018Z,7.93
2023-02-14T11:09:06.792Z,8.90
2023-02-14T11:12:10.406Z,9.10
2023-02-14T11:15:21.788Z,8.30
2023-02-14T11:18:31.669Z,8.38
2023-02-14T11:21:39.093Z,8.57
2023-02-14T11:24:45.870Z,9.43
2023-02-14T11:27:51.041Z,9.30
2023-02-14T11:30:55.128Z,8.40
2023-02-14T11:33:58.761Z,8.63
2023-02-14T11:37:02.256Z,8.68
2023-02-14T11:40:08.031Z,7.50
2023-02-14T11:43:22.042Z,8.88
2023-02-14T11:46:30.532Z,9.05
2023-02-14T11:49:35.986Z,8.23
2023-02-14T11:52:41.503Z,8.45
2023-02-14T11:55:46.530Z,8.20
2023-02-14T11:58:51.582Z,8.82
2023-02-14T12:01:55.614Z,7.82
2023-02-14T12:05:00.612Z,8.25
2023-02-14T12:08:05.094Z,8.27
2023-02-14T12:11:20.323Z,9.35
2023-02-14T12:14:24.690Z,9.10
2023-02-14T12:17:32.926Z,7.53
2023-02-14T12:20:39.868Z,8.85
2023-02-14T12:23:45.818Z,7.57
2023-02-14T12:26:52.883Z,8.20
2023-02-14T12:30:01.274Z,8.48
2023-02-14T12:33:06.096Z,8.82
2023-02-14T12:36:12.622Z,7.63
2023-02-14T12:39:20.708Z,8.25
2023-02-14T12:42:34.996Z,8.13
2023-02-14T12:45:48.912Z,8.98
2023-02-14T12:49:00.046Z,8.30
2023-02-14T12:52:11.858Z,7.90
2023-02-14T12:55:25.240Z,8.75
2023-02-14T12:58:39.062Z,9.32
2023-02-14T13:01:52.405Z,8.57
2023-02-14T13:05:01.906Z,7.88
2023-02-14T13:08:13.557Z,8.60
2023-02-14T13:11:29.876Z,7.97
2023-02-14T13:14:45.630Z,8.35
2023-02-14T13:17:50.357Z,9.30
2023-02-14T13:20:55.407Z,9.38
2023-02-14T13:24:15.043Z,8.45
2023-02-14T13:27:22.293Z,7.80
2023-02-14T13:30:29.989Z,8.40
2023-02-14T13:33:36.347Z,8.75
2023-02-14T13:36:39.852Z,7.80
2023-02-14T13:39:44.893Z,7.97
2023-02-14T13:42:52.476Z,8.55
2023-02-14T13:45:57.801Z,8.25
2023-02-14T13:49:02.198Z,7.10
2023-02-14T13:52:06.560Z,9.05
2023-02-14T13:55:16.241Z,8.50
2023-02-14T13:58:21.601Z,9.27
2023-02-14T14:01:38.982Z,8.68
2023-02-14T14:04:42.446Z,8.15
2023-02-14T14:07:45.892Z,8.98
2023-02-14T14:10:50.122Z,9.95
2023-02-14T14:13:56.669Z,8.48
2023-02-14T14:17:02.314Z,8.27
2023-02-14T14:20:06.806Z,9.02
2023-02-14T14:23:40.271Z,8.60
2023-02-14T14:26:45.828Z,8.13
2023-02-14T14:29:50.577Z,8.45
2023-02-14T14:32:55.498Z,8.57
2023-02-14T14:36:00.490Z,8.02
2023-02-14T14:39:05.264Z,7.43
2023-02-14T14:42:10.017Z,8.55
2023-02-14T14:45:21.515Z,9.38
2023-02-14T14:48:29.812Z,8.13
2023-02-14T14:51:36.094Z,9.10
2023-02-14T14:54:41.950Z,7.03
2023-02-14T14:57:50.009Z,8.80
2023-02-14T15:00:53.678Z,9.40
2023-02-14T15:04:11.781Z,8.18
2023-02-14T15:07:20.893Z,9.18
2023-02-14T15:10:25.474Z,7.43
2023-02-14T15:13:53.561Z,7.60
2023-02-14T15:16:59.410Z,8.32
2023-02-14T15:20:06.609Z,8.57
2023-02-14T15:23:18.378Z,8.93
2023-02-14T15:26:24.773Z,9.13
2023-02-14T15:29:29.476Z,8.82
2023-02-14T15:32:34.303Z,8.77
2023-02-14T15:35:42.396Z,8.30
2023-02-14T15:38:45.976Z,7.70
2023-02-14T15:41:49.478Z,8.57
2023-02-14T15:44:52.936Z,8.32
2023-02-14T15:47:57.253Z,8.75
2023-02-14T15:51:05.001Z,8.38
2023-02-14T15:54:09.633Z,9.45
2023-02-14T15:57:20.225Z,7.80
2023-02-14T16:00:25.621Z,8.93
2023-02-14T16:03:35.756Z,7.88
2023-02-14T16:06:44.383Z,8.63
2023-02-14T16:09:48.065Z,8.43
2023-02-14T16:13:04.242Z,8.43
2023-02-14T16:16:09.212Z,9.00
2023-02-14T16:19:32.726Z,8.40
2023-02-14T16:22:38.446Z,8.02
2023-02-14T16:25:42.476Z,8.40
2023-02-14T16:28:45.885Z,8.00
2023-02-14T16:35:18.048Z,8.38
2023-02-14T16:38:23.519Z,8.55
2023-02-14T16:41:27.798Z,8.57
2023-02-14T16:44:32.250Z,9.27
2023-02-14T16:47:35.691Z,6.80
2023-02-14T16:50:40.370Z,8.18
2023-02-14T16:53:45.484Z,8.55
2023-02-14T16:56:52.863Z,7.85
2023-02-14T16:59:56.335Z,7.70
2023-02-14T17:03:07.348Z,7.68
2023-02-14T17:06:11.661Z,8.75
2023-02-14T17:09:18.525Z,10.23
2023-02-14T17:12:23.593Z,9.85
2023-02-14T17:15:28.376Z,10.63
2023-02-14T17:18:32.362Z,9.73
2023-02-14T17:21:36.049Z,11.02
2023-02-14T17:24:41.389Z,11.38
2023-02-14T17:27:46.203Z,10.55
2023-02-14T17:30:49.672Z,9.75
2023-02-14T17:33:53.345Z,8.90
2023-02-14T17:36:56.824Z,10.13
2023-02-14T17:40:06.001Z,10.38
2023-02-14T17:43:09.918Z,8.88
2023-02-14T17:46:14.290Z,9.07
2023-02-14T17:49:18.257Z,9.20
2023-02-14T17:52:23.906Z,9.77
2023-02-14T17:55:30.084Z,9.20
2023-02-14T17:58:33.538Z,9.57
2023-02-14T18:01:37.145Z,10.10
2023-02-14T18:04:40.798Z,8.98
2023-02-14T18:07:44.244Z,10.18
2023-02-14T18:10:50.333Z,10.32
2023-02-14T18:13:55.971Z,9.75
2023-02-14T18:16:59.765Z,9.73
2023-02-14T18:20:05.248Z,9.82
2023-02-14T18:23:09.489Z,9.18
2023-02-14T18:26:16.130Z,10.00
2023-02-14T18:29:20.256Z,9.63
2023-02-14T18:32:24.364Z,9.35
2023-02-14T18:35:28.718Z,9.73
2023-02-14T18:38:32.435Z,9.20
2023-02-14T18:41:38.186Z,10.45
2023-02-14T18:44:41.764Z,8.90
2023-02-14T18:47:45.301Z,9.20
2023-02-14T18:50:49.574Z,8.85
2023-02-14T18:53:54.555Z,9.18
2023-02-14T18:56:59.502Z,9.45
2023-02-14T19:00:07.290Z,9.93
2023-02-14T19:03:11.178Z,9.73
2023-02-14T19:06:14.788Z,10.13
2023-02-14T19:09:18.732Z,9.88
2023-02-14T19:12:25.074Z,9.95
2023-02-14T19:15:28.999Z,9.48
2023-02-14T19:18:32.454Z,9.75
2023-02-14T19:21:37.046Z,11.35
2023-02-14T19:24:41.345Z,10.05
2023-02-14T19:27:46.393Z,10.77
2023-02-14T19:30:50.385Z,10.25
2023-02-14T19:33:54.266Z,10.20
2023-02-14T19:36:59.504Z,10.00
2023-02-14T19:40:03.065Z,10.75
2023-02-14T19:43:07.983Z,9.77
2023-02-14T19:46:11.418Z,10.27
2023-02-14T19:49:16.288Z,9.70
2023-02-14T19:52:26.441Z,9.65
2023-02-14T19:55:30.122Z,11.00
2023-02-14T19:58:35.220Z,10.60
2023-02-14T20:01:41.806Z,10.90
2023-02-14T20:04:45.854Z,10.45
2023-02-14T20:07:51.821Z,10.77
2023-02-14T20:10:55.594Z,11.13
2023-02-14T20:14:05.026Z,10.63
2023-02-14T20:17:08.695Z,9.02
2023-02-14T20:20:13.794Z,10.18
2023-02-14T20:23:18.421Z,11.25
2023-02-14T20:26:22.042Z,10.93
2023-02-14T20:29:27.032Z,10.52
2023-02-14T20:32:30.628Z,9.48
2023-02-14T20:35:38.251Z,10.32
2023-02-14T20:38:41.846Z,10.15
2023-02-14T20:41:49.774Z,11.10
2023-02-14T20:44:55.437Z,10.85
2023-02-14T20:48:03.192Z,11.32
2023-02-14T20:51:11.124Z,10.43
2023-02-14T20:54:14.730Z,11.40
2023-02-14T20:57:18.359Z,11.00
2023-02-14T21:00:25.540Z,10.27
2023-02-14T21:03:32.148Z,11.18
2023-02-14T21:06:38.973Z,11.48
2023-02-14T21:09:43.391Z,11.50
2023-02-14T21:12:48.327Z,9.60
2023-02-14T21:15:54.300Z,9.75
2023-02-14T21:18:59.799Z,12.68
2023-02-14T21:22:03.259Z,12.48
2023-02-14T21:25:07.513Z,12.32
2023-02-14T21:28:11.113Z,11.88
2023-02-14T21:31:17.252Z,13.32
2023-02-14T21:34:20.725Z,13.70
2023-02-14T21:37:24.172Z,12.88
2023-02-14T21:40:27.494Z,12.05
2023-02-14T21:43:30.792Z,11.18
2023-02-14T21:46:37.132Z,10.57
2023-02-14T21:49:58.356Z,10.05
2023-02-14T21:53:02.372Z,9.90
2023-02-14T21:56:07.142Z,10.02
2023-02-14T21:59:10.633Z,9.38
2023-02-14T22:02:15.368Z,10.43
2023-02-14T22:05:18.996Z,10.20
2023-02-14T22:08:22.290Z,9.48
2023-02-14T22:11:26.607Z,10.63
2023-02-14T22:14:30.054Z,9.90
2023-02-14T22:17:35.563Z,10.48
2023-02-14T22:20:39.914Z,11.05
2023-02-14T22:23:44.576Z,10.63
2023-02-14T22:26:47.824Z,10.07
2023-02-14T22:29:51.220Z,10.70
2023-02-14T22:32:57.189Z,10.60
2023-02-14T22:36:02.299Z,9.30
2023-02-14T22:39:06.717Z,10.43
2023-02-14T22:42:10.991Z,10.00
2023-02-14T22:45:14.489Z,10.48
2023-02-14T22:48:20.321Z,9.73
2023-02-14T22:51:24.758Z,9.60
2023-02-14T22:54:28.563Z,10.57
2023-02-14T22:57:32.776Z,9.15
2023-02-14T23:00:36.257Z,9.88
2023-02-14T23:03:41.319Z,9.73
2023-02-14T23:06:44.726Z,8.05
2023-02-14T23:09:48.441Z,9.73
2023-02-14T23:13:09.713Z,8.98
2023-02-14T23:16:30.598Z,7.93
2023-02-14T23:19:53.986Z,8.18
2023-02-14T23:22:57.377Z,8.05
2023-02-14T23:26:01.473Z,8.82
2023-02-14T23:29:05.166Z,8.32
2023-02-14T23:32:09.472Z,8.23
2023-02-14T23:35:14.303Z,8.18
2023-02-14T23:38:17.785Z,9.13
2023-02-14T23:41:47.227Z,10.43
2023-02-14T23:44:50.588Z,8.73
2023-02-14T23:47:53.959Z,8.70
2023-02-14T23:51:01.889Z,10.38
2023-02-14T23:54:05.648Z,10.02
2023-02-14T23:57:09.642Z,9.63
